createdAt,value
2023-05-05T00:02:02.184Z,98276.52
2023-05-05T00:04:28.592Z,98275.67
2023-05-05T00:06:54.991Z,98277.11
2023-05-05T00:09:21.370Z,98272.59
2023-05-05T00:11:47.778Z,98271.71
2023-05-05T00:14:14.075Z,98271.70
2023-05-05T00:16:40.651Z,98267.84
2023-05-05T00:19:06.997Z,98270.15
2023-05-05T00:21:33.281Z,98266.73
2023-05-05T00:24:07.146Z,98266.33
2023-05-05T00:26:33.495Z,98262.66
2023-05-05T00:29:00.171Z,98257.77
2023-05-05T00:31:26.607Z,98256.34
2023-05-05T00:34:01.943Z,98255.73
2023-05-05T00:36:28.384Z,98253.13
2023-05-05T00:38:54.775Z,98250.39
2023-05-05T00:41:21.122Z,98243.64
2023-05-05T00:43:47.634Z,98239.85
2023-05-05T00:46:17.095Z,98238.57
2023-05-05T00:48:43.495Z,98237.64
2023-05-05T00:51:09.876Z,98230.19
2023-05-05T00:53:36.280Z,98229.29
2023-05-05T00:56:02.813Z,98229.98
2023-05-05T00:58:29.801Z,98231.38
2023-05-05T01:00:56.061Z,98230.09
2023-05-05T01:03:25.640Z,98231.54
2023-05-05T01:05:55.655Z,98234.58
2023-05-05T01:08:57.725Z,98230.38
2023-05-05T01:11:31.559Z,98233.98
2023-05-05T01:14:18.539Z,98237.05
2023-05-05T01:16:53.103Z,98234.33
2023-05-05T01:19:19.458Z,98235.02
2023-05-05T01:21:47.844Z,98230.75
2023-05-05T01:24:33.256Z,98233.77
2023-05-05T01:27:17.419Z,98233.86
2023-05-05T01:29:43.769Z,98235.11
2023-05-05T01:32:12.206Z,98236.16
2023-05-05T01:34:43.575Z,98233.42
2023-05-05T01:37:18.305Z,98227.84
2023-05-05T01:39:49.331Z,98224.23
2023-05-05T01:42:16.224Z,98221.84
2023-05-05T01:44:43.349Z,98220.04
2023-05-05T01:47:15.241Z,98225.55
2023-05-05T01:49:45.379Z,98226.45
2023-05-05T01:52:12.560Z,98223.56
2023-05-05T01:54:39.576Z,98226.48
2023-05-05T01:57:06.776Z,98231.63
2023-05-05T01:59:33.589Z,98227.56
2023-05-05T02:02:01.498Z,98224.89
2023-05-05T02:04:28.936Z,98228.78
2023-05-05T02:06:57.268Z,98230.30
2023-05-05T02:09:24.858Z,98229.58
2023-05-05T02:11:52.741Z,98228.08
2023-05-05T02:14:20.649Z,98231.79
2023-05-05T02:16:47.329Z,98229.30
2023-05-05T02:19:14.220Z,98223.92
2023-05-05T02:21:41.681Z,98222.65
2023-05-05T02:24:08.258Z,98222.70
2023-05-05T02:26:37.754Z,98223.05
2023-05-05T02:29:14.346Z,98222.73
2023-05-05T02:31:48.268Z,98224.39
2023-05-05T02:34:19.724Z,98223.63
2023-05-05T02:36:47.052Z,98225.00
2023-05-05T02:39:18.419Z,98224.96
2023-05-05T02:41:46.967Z,98228.55
2023-05-05T02:44:22.783Z,98224.27
2023-05-05T02:46:50.125Z,98224.75
2023-05-05T02:49:16.859Z,98224.36
2023-05-05T02:51:44.278Z,98220.04
2023-05-05T02:54:17.910Z,98218.05
2023-05-05T02:56:48.639Z,98211.79
2023-05-05T02:59:18.780Z,98214.74
2023-05-05T03:02:05.109Z,98212.70
2023-05-05T03:04:41.088Z,98212.80
2023-05-05T03:07:20.436Z,98213.21
2023-05-05T03:09:55.275Z,98215.67
2023-05-05T03:12:26.555Z,98212.44
2023-05-05T03:15:00.511Z,98215.09
2023-05-05T03:17:28.845Z,98213.02
2023-05-05T03:19:56.549Z,98209.48
2023-05-05T03:22:23.409Z,98211.48
2023-05-05T03:24:50.676Z,98211.79
2023-05-05T03:27:18.043Z,98211.52
2023-05-05T03:29:44.382Z,98212.61
2023-05-05T03:32:12.512Z,98212.23
2023-05-05T03:34:39.704Z,98213.63
2023-05-05T03:37:06.044Z,98210.64
2023-05-05T03:39:32.887Z,98212.98
2023-05-05T03:41:59.582Z,98210.53
2023-05-05T03:44:28.893Z,98216.17
2023-05-05T03:46:56.571Z,98217.31
2023-05-05T03:49:23.053Z,98219.52
2023-05-05T03:51:49.695Z,98219.73
2023-05-05T03:54:16.040Z,98217.64
2023-05-05T03:56:42.482Z,98219.92
2023-05-05T03:59:08.835Z,98221.03
2023-05-05T04:01:35.781Z,98220.34
2023-05-05T04:04:02.163Z,98216.71
2023-05-05T04:06:28.533Z,98216.39
2023-05-05T04:08:54.963Z,98214.09
2023-05-05T04:11:21.304Z,98215.13
2023-05-05T04:13:47.933Z,98214.69
2023-05-05T04:16:14.587Z,98211.84
2023-05-05T04:18:41.125Z,98213.40
2023-05-05T04:21:07.440Z,98216.46
2023-05-05T04:23:33.915Z,98217.34
2023-05-05T04:26:00.412Z,98216.70
2023-05-05T04:28:27.130Z,98219.07
2023-05-05T04:30:53.780Z,98224.17
2023-05-05T04:33:20.488Z,98225.19
2023-05-05T04:35:47.553Z,98226.93
2023-05-05T04:38:14.551Z,98236.14
2023-05-05T04:40:41.589Z,98242.77
2023-05-05T04:43:08.794Z,98247.68
2023-05-05T04:45:35.513Z,98250.61
2023-05-05T04:48:02.236Z,98249.73
2023-05-05T04:50:28.620Z,98248.70
2023-05-05T04:52:55.167Z,98241.77
2023-05-05T04:55:22.048Z,98239.83
2023-05-05T04:57:48.454Z,98241.93
2023-05-05T05:00:14.970Z,98240.95
2023-05-05T05:02:41.462Z,98242.16
2023-05-05T05:05:09.010Z,98244.80
2023-05-05T05:07:35.568Z,98248.39
2023-05-05T05:10:02.167Z,98248.31
2023-05-05T05:12:28.541Z,98245.60
2023-05-05T05:14:55.463Z,98246.02
2023-05-05T05:17:21.778Z,98246.30
2023-05-05T05:19:48.657Z,98256.19
2023-05-05T05:22:15.884Z,98258.59
2023-05-05T05:24:42.531Z,98261.04
2023-05-05T05:27:10.101Z,98260.91
2023-05-05T05:29:38.032Z,98258.81
2023-05-05T05:32:05.185Z,98258.94
2023-05-05T05:34:31.713Z,98259.46
2023-05-05T05:36:59.291Z,98259.44
2023-05-05T05:39:25.794Z,98261.70
2023-05-05T05:41:52.231Z,98260.36
2023-05-05T05:44:18.693Z,98264.68
2023-05-05T05:46:45.215Z,98268.45
2023-05-05T05:49:11.767Z,98269.35
2023-05-05T05:51:38.112Z,98270.45
2023-05-05T05:54:04.460Z,98267.86
2023-05-05T05:56:31.287Z,98270.95
2023-05-05T05:58:57.877Z,98272.25
2023-05-05T06:01:24.297Z,98276.38
2023-05-05T06:03:50.703Z,98274.80
2023-05-05T06:06:17.978Z,98277.61
2023-05-05T06:08:44.437Z,98273.94
2023-05-05T06:11:11.426Z,98274.06
2023-05-05T06:13:37.906Z,98273.95
2023-05-05T06:16:05.419Z,98273.00
2023-05-05T06:18:32.397Z,98265.41
2023-05-05T06:20:58.870Z,98263.66
2023-05-05T06:23:26.702Z,98263.45
2023-05-05T06:25:56.920Z,98261.41
2023-05-05T06:28:23.428Z,98261.80
2023-05-05T06:30:49.830Z,98263.07
2023-05-05T06:33:16.152Z,98266.86
2023-05-05T06:35:45.694Z,98269.84
2023-05-05T06:38:12.263Z,98271.74
2023-05-05T06:40:38.687Z,98270.79
2023-05-05T06:43:05.007Z,98275.73
2023-05-05T06:45:34.871Z,98273.56
2023-05-05T06:48:01.256Z,98271.93
2023-05-05T06:50:27.834Z,98270.71
2023-05-05T06:52:54.207Z,98276.46
2023-05-05T06:55:20.813Z,98269.96
2023-05-05T06:57:47.231Z,98271.20
2023-05-05T07:00:13.824Z,98264.17
2023-05-05T07:02:40.484Z,98262.13
2023-05-05T07:05:07.022Z,98260.39
2023-05-05T07:07:33.328Z,98262.46
2023-05-05T07:09:59.628Z,98262.38
2023-05-05T07:12:28.493Z,98258.88
2023-05-05T07:14:54.903Z,98254.19
2023-05-05T07:17:21.347Z,98251.64
2023-05-05T07:19:47.804Z,98250.34
2023-05-05T07:22:14.173Z,98250.80
2023-05-05T07:24:40.831Z,98252.14
2023-05-05T07:27:07.323Z,98246.98
2023-05-05T07:29:33.650Z,98243.88
2023-05-05T07:32:00.078Z,98240.01
2023-05-05T07:34:26.421Z,98241.47
2023-05-05T07:36:52.719Z,98240.89
2023-05-05T07:39:19.026Z,98239.20
2023-05-05T07:41:45.596Z,98239.31
2023-05-05T07:44:12.184Z,98239.05
2023-05-05T07:46:38.546Z,98239.50
2023-05-05T07:49:05.197Z,98240.45
2023-05-05T07:53:57.990Z,98239.13
2023-05-05T07:56:24.474Z,98240.27
2023-05-05T07:58:50.837Z,98238.79
2023-05-05T08:01:17.377Z,98233.97
2023-05-05T08:03:44.178Z,98235.00
2023-05-05T08:06:10.683Z,98232.26
2023-05-05T08:08:37.355Z,98234.77
2023-05-05T08:11:03.839Z,98232.33
2023-05-05T08:13:30.200Z,98235.07
2023-05-05T08:15:59.147Z,98234.40
2023-05-05T08:18:25.915Z,98235.77
2023-05-05T08:20:52.187Z,98235.14
2023-05-05T08:23:18.511Z,98236.02
2023-05-05T08:25:45.149Z,98238.31
2023-05-05T08:28:11.481Z,98234.14
2023-05-05T08:30:38.160Z,98237.49
2023-05-05T08:33:04.723Z,98236.30
2023-05-05T08:35:31.238Z,98237.52
2023-05-05T08:37:59.122Z,98233.65
2023-05-05T08:40:29.015Z,98239.58
2023-05-05T08:42:55.406Z,98235.27
2023-05-05T08:45:21.784Z,98238.28
2023-05-05T08:47:48.239Z,98236.16
2023-05-05T08:50:16.600Z,98233.20
2023-05-05T08:52:44.792Z,98237.00
2023-05-05T08:55:20.658Z,98232.98
2023-05-05T08:57:51.845Z,98232.34
2023-05-05T09:00:19.048Z,98229.75
2023-05-05T09:02:46.070Z,98231.67
2023-05-05T09:05:12.832Z,98226.91
2023-05-05T09:07:39.320Z,98226.73
2023-05-05T09:10:07.589Z,98226.58
2023-05-05T09:12:34.725Z,98221.64
2023-05-05T09:15:01.149Z,98226.04
2023-05-05T09:17:27.540Z,98226.34
2023-05-05T09:19:59.907Z,98226.48
2023-05-05T09:22:36.039Z,98223.58
2023-05-05T09:25:03.312Z,98224.98
2023-05-05T09:27:49.869Z,98227.50
2023-05-05T09:30:17.498Z,98228.77
2023-05-05T10:52:54.137Z,98214.39
2023-05-05T10:55:39.075Z,98211.84
2023-05-05T10:58:05.494Z,98216.64
2023-05-05T11:00:38.371Z,98210.28
2023-05-05T11:03:17.203Z,98212.38
2023-05-05T11:06:02.667Z,98213.38
2023-05-05T11:08:30.225Z,98211.70
2023-05-05T11:10:56.682Z,98209.60
2023-05-05T11:13:23.178Z,98206.30
2023-05-05T11:15:53.411Z,98206.49
2023-05-05T11:18:30.686Z,98203.78
2023-05-05T11:20:57.082Z,98201.64
2023-05-05T11:23:23.632Z,98204.98
2023-05-05T11:25:50.230Z,98200.77
2023-05-05T11:28:17.713Z,98197.45
2023-05-05T11:31:10.261Z,98202.91
2023-05-05T11:33:39.265Z,98194.77
2023-05-05T11:36:09.792Z,98195.60
2023-05-05T11:38:54.864Z,98196.38
2023-05-05T11:41:30.597Z,98202.38
2023-05-05T11:44:16.673Z,98203.70
2023-05-05T11:46:52.382Z,98193.67
2023-05-05T11:49:28.846Z,98195.99
2023-05-05T11:51:58.962Z,98197.99
2023-05-05T11:54:25.677Z,98202.73
2023-05-05T11:56:56.810Z,98200.64
2023-05-05T11:59:23.156Z,98196.67
2023-05-05T12:01:49.663Z,98199.04
2023-05-05T12:04:16.561Z,98195.45
2023-05-05T12:06:44.097Z,98192.55
2023-05-05T12:09:14.417Z,98186.19
2023-05-05T12:11:47.747Z,98184.79
2023-05-05T12:14:14.409Z,98185.88
2023-05-05T12:16:40.858Z,98181.27
2023-05-05T12:19:07.932Z,98184.14
2023-05-05T12:21:35.611Z,98182.34
2023-05-05T12:24:02.077Z,98182.59
2023-05-05T12:26:29.414Z,98186.48
2023-05-05T12:28:59.529Z,98185.81
2023-05-05T12:31:35.808Z,98184.45
2023-05-05T12:34:03.180Z,98185.04
2023-05-05T12:36:33.063Z,98184.33
2023-05-05T12:38:59.631Z,98184.81
2023-05-05T12:41:26.089Z,98182.31
2023-05-05T12:43:56.244Z,98177.77
2023-05-05T12:46:22.965Z,98175.98
2023-05-05T12:49:03.078Z,98171.69
2023-05-05T12:51:32.631Z,98169.46
2023-05-05T12:54:03.930Z,98168.20
2023-05-05T12:56:34.119Z,98163.23
2023-05-05T12:59:03.959Z,98161.39
2023-05-05T13:01:30.541Z,98161.52
2023-05-05T13:04:08.070Z,98159.69
2023-05-05T13:06:40.954Z,98160.77
2023-05-05T13:09:07.715Z,98152.40
2023-05-05T13:11:34.539Z,98149.95
2023-05-05T13:14:01.359Z,98150.45
2023-05-05T13:16:30.505Z,98145.31
2023-05-05T13:19:06.890Z,98145.47
2023-05-05T13:21:35.852Z,98146.01
2023-05-05T13:24:19.812Z,98144.87
2023-05-05T13:26:51.934Z,98141.88
2023-05-05T13:29:18.436Z,98143.98
2023-05-05T13:31:45.020Z,98141.99
2023-05-05T13:34:19.094Z,98140.83
2023-05-05T13:36:45.500Z,98136.55
2023-05-05T13:39:12.140Z,98133.13
2023-05-05T13:41:38.659Z,98132.33
2023-05-05T13:44:05.070Z,98130.45
2023-05-05T13:46:31.568Z,98126.90
2023-05-05T13:48:58.018Z,98127.92
2023-05-05T13:51:24.372Z,98121.80
2023-05-05T13:53:50.745Z,98116.09
2023-05-05T13:56:17.216Z,98112.68
2023-05-05T13:58:43.533Z,98118.92
2023-05-05T14:01:09.997Z,98117.85
2023-05-05T14:03:39.240Z,98111.26
2023-05-05T14:06:06.095Z,98113.67
2023-05-05T14:08:35.423Z,98117.71
2023-05-05T14:11:01.830Z,98113.13
2023-05-05T14:13:28.258Z,98112.52
2023-05-05T14:15:54.800Z,98112.55
2023-05-05T14:18:21.268Z,98105.62
2023-05-05T14:20:47.646Z,98103.27
2023-05-05T14:23:14.030Z,98104.90
2023-05-05T14:25:40.528Z,98102.96
2023-05-05T14:28:09.163Z,98101.91
2023-05-05T14:30:35.554Z,98101.91
2023-05-05T14:33:02.063Z,98103.54
2023-05-05T14:35:29.131Z,98106.56
2023-05-05T14:37:57.783Z,98109.20
2023-05-05T14:40:24.294Z,98108.08
2023-05-05T14:42:50.787Z,98111.92
2023-05-05T14:45:17.160Z,98108.56
2023-05-05T14:47:43.820Z,98111.05
2023-05-05T14:50:10.232Z,98107.83
2023-05-05T14:52:37.019Z,98110.55
2023-05-05T14:55:04.401Z,98115.55
2023-05-05T14:57:31.108Z,98111.34
2023-05-05T14:59:57.520Z,98111.28
2023-05-05T15:02:23.914Z,98111.94
2023-05-05T15:04:53.846Z,98110.29
2023-05-05T15:07:34.489Z,98110.41
2023-05-05T15:10:00.871Z,98113.48
2023-05-05T15:12:27.343Z,98114.77
2023-05-05T15:15:04.413Z,98113.75
2023-05-05T15:17:38.191Z,98113.02
2023-05-05T15:20:15.135Z,98115.86
2023-05-05T15:22:41.570Z,98119.80
2023-05-05T15:25:08.618Z,98117.01
2023-05-05T15:27:35.327Z,98117.23
2023-05-05T15:30:01.801Z,98114.79
2023-05-05T15:32:28.423Z,98114.59
2023-05-05T15:34:55.077Z,98110.48
2023-05-05T15:37:21.423Z,98107.80
2023-05-05T15:39:47.940Z,98103.85
2023-05-05T15:42:14.324Z,98107.27
2023-05-05T15:44:40.707Z,98108.10
2023-05-05T15:47:07.441Z,98104.39
2023-05-05T15:49:41.390Z,98101.02
2023-05-05T15:52:07.785Z,98102.05
2023-05-05T15:54:34.183Z,98100.84
2023-05-05T15:57:03.563Z,98091.14
2023-05-05T15:59:37.384Z,98093.27
2023-05-05T16:02:03.901Z,98090.27
2023-05-05T16:04:38.916Z,98087.95
2023-05-05T16:07:05.545Z,98084.34
2023-05-05T16:09:31.888Z,98083.98
2023-05-05T16:12:01.715Z,98083.71
2023-05-05T16:14:28.448Z,98078.39
2023-05-05T16:16:54.840Z,98074.36
2023-05-05T16:19:23.748Z,98074.95
2023-05-05T16:21:50.107Z,98078.39
2023-05-05T16:24:17.053Z,98078.61
2023-05-05T16:26:43.745Z,98075.45
2023-05-05T16:29:10.772Z,98078.52
2023-05-05T16:31:37.512Z,98079.02
2023-05-05T16:34:07.079Z,98075.73
2023-05-05T16:36:33.776Z,98078.42
2023-05-05T16:39:00.391Z,98080.17
2023-05-05T16:41:27.020Z,98078.63
2023-05-05T16:43:53.436Z,98075.57
2023-05-05T16:46:19.975Z,98078.77
2023-05-05T16:48:46.459Z,98078.05
2023-05-05T16:51:12.937Z,98082.64
2023-05-05T16:53:39.399Z,98083.09
2023-05-05T16:56:06.055Z,98084.48
2023-05-05T16:58:32.528Z,98083.73
2023-05-05T17:00:58.909Z,98084.43
2023-05-05T17:03:25.329Z,98083.38
2023-05-05T17:05:54.098Z,98079.22
2023-05-05T17:08:20.705Z,98079.61
2023-05-05T17:10:47.280Z,98087.23
2023-05-05T17:13:16.105Z,98092.30
2023-05-05T17:15:42.497Z,98085.96
2023-05-05T17:18:09.283Z,98084.39
2023-05-05T17:20:35.762Z,98086.30
2023-05-05T17:23:04.741Z,98090.11
2023-05-05T17:25:31.193Z,98089.51
2023-05-05T17:27:57.720Z,98093.66
2023-05-05T17:30:24.278Z,98091.45
2023-05-05T17:32:50.917Z,98096.27
2023-05-05T17:35:17.578Z,98094.77
2023-05-05T17:37:44.045Z,98096.67
2023-05-05T17:40:10.765Z,98095.55
2023-05-05T17:42:37.062Z,98099.33
2023-05-05T17:45:03.856Z,98101.08
2023-05-05T17:47:30.579Z,98100.80
2023-05-05T17:49:56.969Z,98107.25
2023-05-05T17:52:23.790Z,98109.49
2023-05-05T17:54:50.870Z,98108.73
2023-05-05T17:57:18.053Z,98107.85
2023-05-05T17:59:44.883Z,98110.11
2023-05-05T18:02:14.435Z,98105.17
2023-05-05T18:04:40.894Z,98106.63
2023-05-05T18:07:07.468Z,98104.28
2023-05-05T18:09:34.853Z,98101.89
2023-05-05T18:12:01.462Z,98104.96
2023-05-05T18:14:30.888Z,98107.41
2023-05-05T18:16:57.394Z,98106.91
2023-05-05T18:19:23.957Z,98109.21
2023-05-05T18:21:51.262Z,98110.48
2023-05-05T18:24:19.962Z,98111.56
2023-05-05T18:26:48.332Z,98108.66
2023-05-05T18:29:14.988Z,98113.98
2023-05-05T18:31:42.206Z,98112.10
2023-05-05T18:34:08.862Z,98112.77
2023-05-05T18:36:35.469Z,98118.44
2023-05-05T18:39:01.986Z,98115.48
2023-05-05T18:41:28.564Z,98117.42
2023-05-05T18:43:55.087Z,98116.58
2023-05-05T18:46:21.776Z,98120.58
2023-05-05T18:48:48.127Z,98121.33
2023-05-05T18:51:14.619Z,98119.85
2023-05-05T18:53:41.120Z,98119.84
2023-05-05T18:56:07.653Z,98118.13
2023-05-05T18:58:34.044Z,98116.92
2023-05-05T19:01:00.909Z,98120.98
2023-05-05T19:03:27.488Z,98123.29
2023-05-05T19:05:55.440Z,98123.22
2023-05-05T19:08:22.389Z,98124.79
2023-05-05T19:10:50.213Z,98126.20
2023-05-05T19:13:16.729Z,98132.92
2023-05-05T19:15:43.711Z,98129.05
2023-05-05T19:18:10.125Z,98129.33
2023-05-05T19:20:38.980Z,98132.61
2023-05-05T19:23:05.706Z,98127.29
2023-05-05T19:25:33.516Z,98126.27
2023-05-05T19:28:00.041Z,98123.00
2023-05-05T19:30:26.751Z,98121.27
2023-05-05T19:32:53.315Z,98121.20
2023-05-05T19:35:19.964Z,98120.70
2023-05-05T19:37:46.864Z,98116.41
2023-05-05T19:40:13.632Z,98112.54
2023-05-05T19:42:40.575Z,98112.05
2023-05-05T19:45:08.413Z,98112.98
2023-05-05T19:47:34.850Z,98108.75
2023-05-05T19:50:01.422Z,98112.89
2023-05-05T19:52:27.920Z,98116.36
2023-05-05T19:54:54.337Z,98121.05
2023-05-05T19:57:22.182Z,98117.24
2023-05-05T19:59:48.805Z,98119.56
2023-05-05T20:02:15.575Z,98119.67
2023-05-05T20:04:42.471Z,98119.35
2023-05-05T20:07:08.934Z,98116.00
2023-05-05T20:09:35.305Z,98111.88
2023-05-05T20:12:01.969Z,98108.81
2023-05-05T20:14:30.451Z,98114.37
2023-05-05T20:16:56.789Z,98110.77
2023-05-05T20:19:23.517Z,98109.37
2023-05-05T20:21:49.965Z,98107.69
2023-05-05T20:24:16.574Z,98110.21
2023-05-05T20:26:43.039Z,98110.02
2023-05-05T20:29:09.616Z,98112.91
2023-05-05T20:31:39.201Z,98112.39
2023-05-05T20:34:05.827Z,98110.59
2023-05-05T20:36:32.435Z,98105.20
2023-05-05T20:38:58.830Z,98106.24
2023-05-05T20:41:25.244Z,98104.58
2023-05-05T20:43:52.107Z,98106.16
2023-05-05T20:46:18.588Z,98105.17
2023-05-05T20:48:45.104Z,98104.40
2023-05-05T20:51:14.157Z,98103.08
2023-05-05T20:53:40.630Z,98100.48
2023-05-05T20:56:08.630Z,98099.60
2023-05-05T20:58:35.526Z,98103.48
2023-05-05T21:01:01.997Z,98102.97
2023-05-05T21:03:31.092Z,98111.79
2023-05-05T21:05:57.710Z,98110.48
2023-05-05T21:08:24.196Z,98110.35
2023-05-05T21:10:51.602Z,98110.86
2023-05-05T21:13:18.132Z,98113.71
2023-05-05T21:15:44.700Z,98113.02
2023-05-05T21:18:11.642Z,98114.13
2023-05-05T21:20:38.072Z,98113.27
2023-05-05T21:23:04.399Z,98109.13
2023-05-05T21:25:30.749Z,98107.72
2023-05-05T21:27:57.179Z,98106.08
2023-05-05T21:30:23.553Z,98101.67
2023-05-05T21:32:50.220Z,98103.16
2023-05-05T21:35:16.632Z,98103.95
2023-05-05T21:37:45.566Z,98100.06
2023-05-05T21:40:12.375Z,98097.59
2023-05-05T21:42:39.500Z,98100.91
2023-05-05T21:45:06.149Z,98097.63
2023-05-05T21:47:33.311Z,98094.77
2023-05-05T21:50:00.106Z,98093.95
2023-05-05T21:52:26.554Z,98092.20
2023-05-05T21:54:53.044Z,98088.46
2023-05-05T21:57:19.435Z,98086.17
2023-05-05T21:59:45.920Z,98081.98
2023-05-05T22:02:12.198Z,98076.63
2023-05-05T22:04:38.539Z,98080.45
2023-05-05T22:07:04.967Z,98081.98
2023-05-05T22:09:31.347Z,98078.65
2023-05-05T22:11:57.676Z,98085.83
2023-05-05T22:14:23.996Z,98084.20
2023-05-05T22:16:50.760Z,98086.25
2023-05-05T22:19:19.507Z,98083.09
2023-05-05T22:21:45.985Z,98079.39
2023-05-05T22:24:12.530Z,98079.55
2023-05-05T22:26:38.814Z,98077.96
2023-05-05T22:29:05.107Z,98076.56
2023-05-05T22:31:31.510Z,98079.50
2023-05-05T22:33:57.810Z,98080.22
2023-05-05T22:36:24.243Z,98081.99
2023-05-05T22:38:50.606Z,98080.89
2023-05-05T22:41:16.876Z,98079.13
2023-05-05T22:43:43.172Z,98077.19
2023-05-05T22:46:09.602Z,98073.63
2023-05-05T22:48:35.862Z,98068.49
2023-05-05T22:51:02.164Z,98068.94
2023-05-05T22:53:28.484Z,98067.42
2023-05-05T22:55:54.812Z,98063.38
2023-05-05T22:58:21.357Z,98063.48
2023-05-05T23:00:47.726Z,98060.91
2023-05-05T23:03:14.239Z,98062.45
2023-05-05T23:05:40.584Z,98060.66
2023-05-05T23:08:06.905Z,98060.45
2023-05-05T23:10:33.292Z,98054.73
2023-05-05T23:12:59.698Z,98052.48
2023-05-05T23:15:26.153Z,98048.02
2023-05-05T23:17:52.436Z,98043.16
2023-05-05T23:20:18.806Z,98034.50
2023-05-05T23:22:45.362Z,98036.31
2023-05-05T23:25:12.073Z,98032.89
2023-05-05T23:27:38.944Z,98035.92
2023-05-05T23:30:06.217Z,98034.94
2023-05-05T23:32:32.776Z,98037.85
2023-05-05T23:34:59.128Z,98038.41
2023-05-05T23:37:25.485Z,98037.68
2023-05-05T23:39:51.912Z,98039.95
2023-05-05T23:42:18.258Z,98043.95
2023-05-05T23:44:44.624Z,98047.27
2023-05-05T23:47:11.066Z,98044.50
2023-05-05T23:49:37.706Z,98042.30
2023-05-05T23:52:04.183Z,98038.13
2023-05-05T23:54:30.517Z,98041.60
2023-05-05T23:56:56.902Z,98044.83
2023-05-05T23:59:23.597Z,98049.20
